Time;durP1;ratioP1;P1;durP2;ratioP2;P2;SDS_P1;SDS_P2;PMS_P1;PMS_P2;Temp;Humidity;BMP_temperature;BMP_pressure;BME280_temperature;BME280_humidity;BME280_pressure;Samples;Min_cycle;Max_cycle;Signal;HPM_P1;HPM_P2
2022/03/14 00:01:05;;;;;;;10.53;6.63;;;;;;;1.22;79.11;100760.09;5094188;28;20342;-57
2022/03/14 00:03:53;;;;;;;12.40;6.87;;;;;;;1.21;79.65;100756.75;5094785;28;20236;-64
2022/03/14 00:06:22;;;;;;;13.90;6.20;;;;;;;1.19;79.50;100757.59;5094824;28;20291;-56
2022/03/14 00:08:50;;;;;;;11.83;6.63;;;;;;;1.16;79.06;100763.50;5094630;28;20232;-64
2022/03/14 00:11:18;;;;;;;11.87;6.47;;;;;;;1.16;78.87;100757.63;5095651;28;20229;-57
2022/03/14 00:13:48;;;;;;;10.57;5.93;;;;;;;1.14;79.30;100752.59;5100247;28;20251;-60
2022/03/14 00:16:23;;;;;;;12.20;6.10;;;;;;;1.21;79.06;100759.25;5098601;28;20313;-56
2022/03/14 00:18:51;;;;;;;13.17;6.60;;;;;;;1.18;78.91;100754.25;5098023;28;20246;-64
2022/03/14 00:21:20;;;;;;;11.53;6.83;;;;;;;1.19;79.17;100760.13;5099867;28;20218;-64
2022/03/14 00:23:49;;;;;;;11.40;6.37;;;;;;;1.28;79.05;100760.03;5101983;28;20233;-57
2022/03/14 00:26:16;;;;;;;14.53;7.10;;;;;;;1.30;79.14;100756.66;5102632;28;20224;-56
2022/03/14 00:28:43;;;;;;;14.00;6.67;;;;;;;1.35;78.57;100764.22;5099192;28;20293;-58
2022/03/14 00:31:10;;;;;;;11.67;6.77;;;;;;;1.29;79.15;100769.28;5098003;28;20823;-64
2022/03/14 00:33:39;;;;;;;10.70;6.40;;;;;;;1.26;79.14;100760.06;5098389;28;20206;-64
2022/03/14 00:36:08;;;;;;;12.17;7.23;;;;;;;1.23;79.11;100766.81;5097724;28;20222;-63
2022/03/14 00:38:36;;;;;;;13.73;7.37;;;;;;;1.13;79.69;100771.94;5097882;28;20240;-56
2022/03/14 00:41:05;;;;;;;15.53;6.93;;;;;;;1.16;79.74;100768.53;5097582;28;20835;-64
2022/03/14 00:43:34;;;;;;;11.90;6.70;;;;;;;1.26;80.01;100771.84;5099083;28;20206;-64
2022/03/14 00:46:01;;;;;;;9.97;6.27;;;;;;;1.23;79.97;100771.88;5097488;28;20267;-56
2022/03/14 00:48:32;;;;;;;13.10;6.87;;;;;;;1.26;80.38;100770.16;5098045;28;20225;-56
2022/03/14 00:51:00;;;;;;;14.30;7.40;;;;;;;1.19;80.61;100770.19;5098518;28;20226;-64
2022/03/14 00:53:27;;;;;;;11.73;7.27;;;;;;;1.23;81.40;100766.81;5098571;28;20206;-56
2022/03/14 00:55:55;;;;;;;13.20;7.13;;;;;;;1.22;81.39;100775.22;5098665;28;20229;-64
2022/03/14 00:58:24;;;;;;;13.60;7.23;;;;;;;1.13;81.72;100769.41;5098659;28;20213;-64
2022/03/14 01:00:50;;;;;;;11.60;6.97;;;;;;;1.07;82.46;100771.94;5099063;28;20581;-56
2022/03/14 01:03:18;;;;;;;13.97;7.00;;;;;;;1.15;82.53;100771.91;5097213;28;20232;-64
2022/03/14 01:05:45;;;;;;;14.40;7.47;;;;;;;1.15;82.55;100773.59;5097957;28;20225;-64
2022/03/14 01:08:12;;;;;;;12.37;7.30;;;;;;;0.98;83.33;100777.03;5097867;28;20233;-64
2022/03/14 01:10:40;;;;;;;14.80;7.60;;;;;;;1.04;83.55;100776.16;5096620;28;20246;-64
2022/03/14 01:13:10;;;;;;;14.03;7.30;;;;;;;0.93;84.04;100771.19;5096023;28;20201;-65
2022/03/14 01:15:39;;;;;;;13.63;7.53;;;;;;;0.98;84.10;100772.00;5098274;28;20273;-64
2022/03/14 01:18:06;;;;;;;15.20;7.73;;;;;;;1.06;83.78;100770.28;5098137;28;20608;-64
2022/03/14 01:20:33;;;;;;;13.67;6.90;;;;;;;1.08;82.97;100772.81;5096541;28;20656;-64
2022/03/14 01:23:00;;;;;;;15.57;7.57;;;;;;;1.08;82.54;100777.84;5095669;28;20214;-57
2022/03/14 01:25:27;;;;;;;14.43;7.50;;;;;;;1.05;82.67;100778.69;5096610;28;20221;-56
2022/03/14 01:27:54;;;;;;;14.40;7.30;;;;;;;1.04;82.72;100787.06;5099577;28;20745;-64
2022/03/14 01:30:22;;;;;;;13.53;7.50;;;;;;;0.92;82.95;100782.13;5098003;28;20226;-56
2022/03/14 01:32:51;;;;;;;12.10;7.13;;;;;;;0.95;83.40;100783.78;5096951;28;20210;-64
2022/03/14 01:35:19;;;;;;;11.80;7.27;;;;;;;0.93;83.82;100773.69;5097874;28;20233;-56
2022/03/14 01:37:49;;;;;;;15.37;7.37;;;;;;;1.01;83.05;100777.03;5097309;28;20205;-56
2022/03/14 01:40:16;;;;;;;14.50;7.47;;;;;;;1.07;82.86;100784.53;5098792;28;20222;-64
2022/03/14 01:42:43;;;;;;;12.90;6.63;;;;;;;1.13;82.09;100782.00;5097960;28;20205;-56
2022/03/14 01:45:14;;;;;;;12.53;7.33;;;;;;;1.05;82.30;100781.22;5097058;28;20230;-62
2022/03/14 01:47:42;;;;;;;14.20;8.10;;;;;;;1.06;82.43;100787.91;5098055;28;20229;-64
2022/03/14 01:50:12;;;;;;;15.70;7.33;;;;;;;1.18;82.50;100784.47;5097174;28;20287;-63
2022/03/14 01:52:41;;;;;;;12.97;7.80;;;;;;;1.02;83.58;100783.75;5098443;28;20202;-57
2022/03/14 01:55:09;;;;;;;14.27;7.33;;;;;;;0.96;84.66;100783.78;5097570;28;20226;-59
2022/03/14 01:57:37;;;;;;;11.50;7.57;;;;;;;0.92;84.82;100787.16;5097527;28;20201;-64
2022/03/14 02:00:06;;;;;;;15.40;7.03;;;;;;;0.84;84.77;100783.81;5096962;28;20233;-56
2022/03/14 02:02:33;;;;;;;12.20;7.63;;;;;;;0.89;84.59;100790.50;5096973;28;20594;-64
2022/03/14 02:05:00;;;;;;;15.93;8.43;;;;;;;0.83;84.90;100787.19;5097640;28;20230;-56
2022/03/14 02:07:28;;;;;;;21.33;9.63;;;;;;;0.92;84.55;100787.16;5097448;28;20212;-63
2022/03/14 02:09:55;;;;;;;18.40;9.97;;;;;;;1.04;83.95;100802.19;5097158;28;20217;-57
2022/03/14 02:12:22;;;;;;;19.40;8.47;;;;;;;1.00;83.60;100805.56;5097277;28;20208;-57
2022/03/14 02:14:50;;;;;;;15.77;7.90;;;;;;;0.78;83.96;100798.97;5096793;28;20195;-64
2022/03/14 02:17:20;;;;;;;16.70;8.33;;;;;;;0.87;83.45;100806.47;5096915;28;20587;-57
2022/03/14 02:19:47;;;;;;;14.93;8.40;;;;;;;0.81;83.58;100811.53;5097605;28;20274;-56
2022/03/14 02:22:16;;;;;;;16.40;8.37;;;;;;;0.87;84.36;100809.84;5096730;28;20679;-64
2022/03/14 02:24:44;;;;;;;13.57;7.73;;;;;;;0.82;84.03;100819.09;5096900;28;20209;-64
2022/03/14 02:27:13;;;;;;;14.00;7.97;;;;;;;1.05;82.77;100824.03;5096705;28;20202;-57
2022/03/14 02:29:40;;;;;;;14.03;7.67;;;;;;;1.11;82.54;100818.13;5096758;28;20742;-65
2022/03/14 02:32:09;;;;;;;16.83;8.13;;;;;;;0.99;83.13;100819.03;5095348;28;20253;-64
2022/03/14 02:34:36;;;;;;;15.00;8.00;;;;;;;0.87;83.45;100819.06;5095673;28;20210;-56
2022/03/14 02:37:04;;;;;;;14.10;8.27;;;;;;;0.99;83.02;100819.03;5095431;28;20198;-64
2022/03/14 02:39:34;;;;;;;14.27;8.30;;;;;;;0.97;83.12;100822.41;5095815;28;20209;-64
2022/03/14 02:42:02;;;;;;;14.63;7.97;;;;;;;1.06;82.85;100824.84;5095569;28;20202;-57
2022/03/14 02:44:29;;;;;;;16.07;7.50;;;;;;;1.05;82.94;100828.22;5096195;28;20237;-57
2022/03/14 02:46:56;;;;;;;14.97;7.83;;;;;;;1.04;83.50;100824.03;5095473;28;20205;-64
2022/03/14 02:49:23;;;;;;;14.90;8.63;;;;;;;0.99;83.58;100833.28;5097249;28;20341;-62
2022/03/14 02:51:50;;;;;;;14.17;7.53;;;;;;;0.95;83.95;100832.47;5096152;28;20222;-64
2022/03/14 02:54:17;;;;;;;14.53;8.40;;;;;;;0.92;84.11;100835.00;5096423;28;20241;-64
2022/03/14 02:56:45;;;;;;;17.07;8.77;;;;;;;0.98;84.19;100832.44;5095156;28;20221;-57
2022/03/14 02:59:12;;;;;;;14.73;8.37;;;;;;;0.84;84.38;100830.00;5095142;28;20201;-65
2022/03/14 03:01:39;;;;;;;14.97;7.97;;;;;;;0.92;84.12;100829.97;5095845;28;20230;-64
2022/03/14 03:04:06;;;;;;;13.77;8.00;;;;;;;0.97;83.94;100840.03;5094039;28;20213;-57
2022/03/14 03:06:33;;;;;;;14.67;7.93;;;;;;;0.98;83.57;100842.50;5093843;28;20229;-65
2022/03/14 03:09:03;;;;;;;15.20;8.23;;;;;;;0.97;83.58;100845.88;5092345;28;20236;-55
2022/03/14 03:11:31;;;;;;;19.87;8.33;;;;;;;1.00;83.45;100842.53;5097139;28;20302;-55
2022/03/14 03:13:59;;;;;;;13.13;7.83;;;;;;;0.91;83.43;100850.97;5097345;28;20209;-56
2022/03/14 03:16:26;;;;;;;16.43;8.07;;;;;;;0.87;83.72;100849.28;5094533;28;20228;-55
2022/03/14 03:18:54;;;;;;;18.40;8.10;;;;;;;0.90;83.44;100851.78;5096658;28;20573;-56
2022/03/14 03:21:21;;;;;;;15.33;8.23;;;;;;;0.94;83.21;100850.94;5095960;28;20229;-57
2022/03/14 03:23:48;;;;;;;14.67;7.90;;;;;;;0.94;82.89;100853.47;5095095;28;20194;-56
2022/03/14 03:26:15;;;;;;;16.50;8.63;;;;;;;0.83;82.76;100855.19;5096162;28;20222;-56
2022/03/14 03:28:44;;;;;;;15.73;8.30;;;;;;;1.02;82.39;100859.31;5096120;28;20229;-55
2022/03/14 03:31:16;;;;;;;14.60;7.83;;;;;;;0.93;81.99;100859.31;5095665;28;20230;-63
2022/03/14 03:33:44;;;;;;;15.13;7.90;;;;;;;0.99;81.84;100866.88;5096031;28;20192;-55
2022/03/14 03:36:11;;;;;;;16.50;8.10;;;;;;;0.96;82.07;100874.44;5095417;28;20271;-62
2022/03/14 03:38:39;;;;;;;17.20;8.20;;;;;;;0.84;82.01;100874.47;5095148;28;20194;-63
2022/03/14 03:41:07;;;;;;;17.30;8.10;;;;;;;0.96;81.87;100878.63;5092643;28;20229;-55
2022/03/14 03:43:34;;;;;;;15.40;8.43;;;;;;;0.96;81.67;100884.53;5093232;28;20297;-63
2022/03/14 03:46:02;;;;;;;15.20;7.97;;;;;;;0.94;81.52;100887.88;5097110;28;20256;-63
2022/03/14 03:48:30;;;;;;;13.53;7.60;;;;;;;0.95;81.44;100882.81;5102026;28;20236;-63
2022/03/14 03:50:57;;;;;;;14.33;8.00;;;;;;;0.97;81.05;100890.38;5100525;28;20237;-55
2022/03/14 03:53:24;;;;;;;14.23;7.77;;;;;;;0.79;81.62;100888.78;5100156;28;20224;-62
2022/03/14 03:55:52;;;;;;;14.93;8.33;;;;;;;0.79;81.41;100883.75;5099527;28;20226;-62
2022/03/14 03:58:19;;;;;;;15.23;8.33;;;;;;;0.74;82.29;100887.94;5099196;28;20202;-55
2022/03/14 04:00:45;;;;;;;14.97;8.37;;;;;;;0.72;83.13;100892.13;5100661;28;20302;-57
2022/03/14 04:03:15;;;;;;;16.20;7.80;;;;;;;0.75;83.02;100889.59;5099472;28;20186;-63
2022/03/14 04:05:43;;;;;;;14.70;8.33;;;;;;;0.72;82.98;100894.66;5099142;28;20249;-63
2022/03/14 04:08:10;;;;;;;14.67;8.33;;;;;;;0.74;82.14;100892.97;5098458;28;20197;-63
2022/03/14 04:10:38;;;;;;;14.83;8.13;;;;;;;0.85;81.99;100896.31;5098876;28;20229;-63
2022/03/14 04:13:06;;;;;;;12.50;7.53;;;;;;;0.73;82.21;100899.69;5100306;28;20619;-63
2022/03/14 04:15:51;;;;;;;12.93;7.70;;;;;;;0.73;82.68;100907.25;5100447;28;20336;-63
2022/03/14 04:18:19;;;;;;;13.17;7.63;;;;;;;0.74;83.07;100910.59;5099597;28;20206;-55
2022/03/14 04:20:48;;;;;;;14.83;7.93;;;;;;;0.78;83.10;100907.22;5100078;28;20221;-63
2022/03/14 04:23:17;;;;;;;17.67;7.63;;;;;;;0.65;83.33;100914.81;5099457;28;20202;-55
2022/03/14 04:25:45;;;;;;;18.27;8.60;;;;;;;0.59;83.53;100914.00;5098415;28;20288;-56
2022/03/14 04:28:12;;;;;;;14.77;8.10;;;;;;;0.65;83.78;100914.81;5100066;28;20683;-56
2022/03/14 04:30:40;;;;;;;15.20;8.60;;;;;;;0.78;83.80;100918.13;5098219;28;20221;-63
2022/03/14 04:33:08;;;;;;;16.83;7.87;;;;;;;0.75;83.26;100920.66;5099220;28;20198;-63
2022/03/14 04:35:37;;;;;;;12.80;7.70;;;;;;;0.71;83.41;100921.50;5100157;28;20229;-55
2022/03/14 04:38:07;;;;;;;15.47;8.13;;;;;;;0.57;84.02;100921.53;5097575;28;20306;-63
2022/03/14 04:40:35;;;;;;;14.27;7.67;;;;;;;0.68;83.93;100924.88;5099025;28;20240;-55
2022/03/14 04:43:05;;;;;;;12.80;7.80;;;;;;;0.77;83.84;100933.25;5097057;28;20210;-63
2022/03/14 04:45:32;;;;;;;13.93;7.93;;;;;;;0.71;83.66;100933.28;5097034;28;20248;-63
2022/03/14 04:47:59;;;;;;;15.33;8.13;;;;;;;0.84;82.87;100939.94;5097302;28;20202;-55
2022/03/14 04:50:26;;;;;;;17.53;9.17;;;;;;;0.88;82.64;100944.13;5098870;28;20708;-55
2022/03/14 04:52:53;;;;;;;15.33;7.93;;;;;;;0.78;82.95;100940.78;5098229;28;20703;-56
2022/03/14 04:55:22;;;;;;;14.67;8.23;;;;;;;0.70;82.92;100941.63;5099554;28;20232;-64
2022/03/14 04:57:50;;;;;;;16.00;8.43;;;;;;;0.91;82.79;100951.69;5099298;28;20202;-56
2022/03/14 05:00:18;;;;;;;15.57;7.97;;;;;;;0.88;82.77;100951.69;5098478;28;20876;-64
2022/03/14 05:02:45;;;;;;;18.43;8.80;;;;;;;0.88;82.75;100957.56;5098460;28;20205;-63
2022/03/14 05:05:12;;;;;;;15.73;8.67;;;;;;;0.86;82.93;100958.41;5098067;28;20226;-56
2022/03/14 05:07:39;;;;;;;15.73;8.77;;;;;;;0.95;82.30;100968.44;5098340;28;20206;-56
2022/03/14 05:10:07;;;;;;;15.87;8.57;;;;;;;1.02;81.17;100971.78;5097657;28;20241;-59
2022/03/14 05:12:36;;;;;;;16.57;7.83;;;;;;;0.95;81.55;100967.63;5097696;28;20235;-56
2022/03/14 05:15:04;;;;;;;15.70;8.37;;;;;;;0.87;81.87;100971.00;5099118;28;20250;-55
2022/03/14 05:17:32;;;;;;;13.37;7.60;;;;;;;0.88;81.37;100974.34;5097107;28;20233;-64
2022/03/14 05:22:44;;;;;;;19.77;8.13;;;;;;;1.01;80.14;100983.53;5097201;28;20205;-56
2022/03/14 05:25:11;;;;;;;13.93;7.23;;;;;;;0.96;79.60;100984.38;5097292;28;20222;-63
2022/03/14 05:27:40;;;;;;;11.43;6.70;;;;;;;0.96;79.65;100986.91;5097987;28;20679;-56
2022/03/14 05:30:10;;;;;;;14.23;7.50;;;;;;;1.12;79.06;100989.38;5096743;28;20245;-56
2022/03/14 05:32:39;;;;;;;13.27;7.70;;;;;;;1.19;78.78;100992.72;5098254;28;20193;-56
2022/03/14 05:35:07;;;;;;;14.80;7.83;;;;;;;1.10;79.67;100996.09;5097346;28;20222;-64
2022/03/14 05:37:36;;;;;;;10.60;7.17;;;;;;;1.44;78.82;100998.53;5097326;28;20202;-56
2022/03/14 05:40:04;;;;;;;14.97;7.77;;;;;;;1.32;79.09;100998.56;5097639;28;20222;-64
2022/03/14 05:42:31;;;;;;;12.67;7.60;;;;;;;1.30;78.89;101015.38;5097241;28;20202;-62
2022/03/14 05:44:59;;;;;;;13.17;8.20;;;;;;;1.24;79.03;101008.66;5098100;28;20222;-56
2022/03/14 05:47:26;;;;;;;12.23;7.20;;;;;;;1.22;79.03;101007.84;5096477;28;20194;-63
2022/03/14 05:49:53;;;;;;;12.93;7.27;;;;;;;1.27;78.89;101015.38;5099022;28;20238;-63
2022/03/14 05:52:21;;;;;;;12.80;7.00;;;;;;;1.31;78.95;101012.03;5096390;28;20206;-56
2022/03/14 05:54:48;;;;;;;14.03;7.40;;;;;;;1.36;78.84;101021.22;5095756;28;20210;-56
2022/03/14 05:57:16;;;;;;;14.37;7.63;;;;;;;1.50;78.35;101013.63;5096344;28;20193;-57
2022/03/14 05:59:43;;;;;;;13.70;7.73;;;;;;;1.58;78.11;101027.03;5095831;28;20243;-64
2022/03/14 06:02:11;;;;;;;14.10;7.43;;;;;;;1.50;78.25;101018.66;5096103;28;20292;-64
2022/03/14 06:04:39;;;;;;;13.07;7.40;;;;;;;1.48;78.13;101039.66;5096978;28;20630;-56
2022/03/14 06:07:06;;;;;;;12.83;7.50;;;;;;;1.61;77.32;101045.53;5096501;28;20229;-55
2022/03/14 06:09:33;;;;;;;16.17;8.50;;;;;;;1.62;77.12;101042.97;5097417;28;20240;-56
2022/03/14 06:12:00;;;;;;;19.03;9.63;;;;;;;1.77;76.83;101039.53;5096160;28;20198;-63
2022/03/14 06:14:27;;;;;;;15.33;9.27;;;;;;;1.89;76.73;101047.06;5098894;28;20230;-55
2022/03/14 06:16:54;;;;;;;34.00;16.73;;;;;;;2.18;76.62;101056.16;5097591;28;20726;-56
2022/03/14 06:19:23;;;;;;;32.20;15.40;;;;;;;2.14;74.97;101051.97;5095645;28;20223;-55
2022/03/14 06:21:50;;;;;;;43.67;20.17;;;;;;;2.25;76.02;101057.78;5094998;28;20222;-56
2022/03/14 06:24:17;;;;;;;42.57;17.30;;;;;;;2.02;75.62;101066.34;5096886;28;20198;-59
2022/03/14 06:26:45;;;;;;;32.47;14.93;;;;;;;2.12;76.47;101063.75;5097622;28;20198;-56
2022/03/14 06:29:13;;;;;;;20.63;11.43;;;;;;;2.27;77.53;101068.72;5095781;28;20229;-64
2022/03/14 06:31:39;;;;;;;19.17;10.83;;;;;;;2.40;77.17;101070.31;5095552;28;20222;-62
2022/03/14 06:34:06;;;;;;;21.67;10.50;;;;;;;2.45;77.68;101068.59;5096263;28;20205;-56
2022/03/14 06:36:36;;;;;;;14.53;8.07;;;;;;;2.47;76.91;101073.63;5097129;28;20245;-55
2022/03/14 06:39:04;;;;;;;13.73;7.60;;;;;;;2.67;74.26;101081.06;5096080;28;20224;-62
2022/03/14 06:41:31;;;;;;;16.13;7.80;;;;;;;2.63;74.21;101081.94;5096266;28;20225;-56
2022/03/14 06:43:58;;;;;;;17.17;9.13;;;;;;;2.79;73.41;101073.38;5095363;28;20298;-63
2022/03/14 06:46:26;;;;;;;51.83;24.70;;;;;;;2.89;73.09;101077.50;5096066;28;20229;-57
2022/03/14 06:48:53;;;;;;;20.30;10.97;;;;;;;2.95;73.32;101084.19;5095898;28;20202;-55
2022/03/14 06:51:21;;;;;;;14.60;8.10;;;;;;;2.94;72.54;101087.59;5097893;28;20232;-63
2022/03/14 06:53:50;;;;;;;14.10;8.13;;;;;;;3.05;73.81;101087.47;5096724;28;20209;-55
2022/03/14 06:56:17;;;;;;;13.13;7.37;;;;;;;3.03;72.58;101086.66;5096264;28;20224;-62
2022/03/14 06:58:44;;;;;;;10.80;6.93;;;;;;;2.63;71.55;101087.00;5095627;28;20202;-59
2022/03/14 07:01:12;;;;;;;16.23;8.20;;;;;;;2.73;73.60;101091.09;5095995;28;20619;-62
2022/03/14 07:03:41;;;;;;;18.83;9.53;;;;;;;3.09;74.04;101092.50;5095338;28;20271;-63
2022/03/14 07:06:07;;;;;;;15.60;7.97;;;;;;;3.00;71.61;101097.63;5095138;28;20222;-55
2022/03/14 07:08:34;;;;;;;15.40;7.77;;;;;;;3.03;72.33;101096.78;5097481;28;20208;-56
2022/03/14 07:11:04;;;;;;;13.70;7.47;;;;;;;3.21;71.30;101100.81;5094605;28;20261;-55
2022/03/14 07:13:31;;;;;;;13.13;7.47;;;;;;;3.14;71.82;101100.03;5095167;28;20212;-63
2022/03/14 07:15:58;;;;;;;14.37;8.43;;;;;;;3.52;72.25;101098.78;5096215;28;20682;-63
2022/03/14 07:18:25;;;;;;;12.57;7.50;;;;;;;3.69;70.37;101099.44;5094232;28;20206;-56
2022/03/14 07:20:51;;;;;;;15.73;7.57;;;;;;;4.05;69.35;101099.88;5096346;28;20221;-56
2022/03/14 07:23:18;;;;;;;13.10;7.60;;;;;;;4.09;64.75;101111.63;5095810;28;20208;-56
2022/03/14 07:25:46;;;;;;;17.73;8.60;;;;;;;4.19;65.82;101114.84;5093625;28;20261;-54
2022/03/14 07:28:14;;;;;;;17.03;8.07;;;;;;;4.48;63.57;101119.50;5096179;28;20202;-62
2022/03/14 07:30:41;;;;;;;18.27;8.00;;;;;;;4.71;63.08;101114.97;5095743;28;20627;-55
2022/03/14 07:33:08;;;;;;;16.30;8.73;;;;;;;4.58;63.93;101116.00;5095242;28;20615;-62
2022/03/14 07:35:36;;;;;;;18.90;8.47;;;;;;;4.28;63.94;101119.81;5091754;28;20229;-63
2022/03/14 07:38:03;;;;;;;17.60;9.03;;;;;;;4.40;65.21;101116.28;5093809;28;20259;-62
2022/03/14 07:40:31;;;;;;;16.33;9.10;;;;;;;4.93;64.97;101127.28;5079055;28;20220;-58
2022/03/14 07:42:59;;;;;;;18.50;9.97;;;;;;;4.98;61.51;101133.13;5077822;28;20682;-55
2022/03/14 07:45:28;;;;;;;17.70;9.53;;;;;;;4.99;60.31;101125.47;5096502;28;20222;-63
2022/03/14 07:47:56;;;;;;;17.60;9.03;;;;;;;4.72;60.43;101126.78;5093971;28;20205;-63
2022/03/14 07:50:24;;;;;;;16.73;8.53;;;;;;;4.76;59.17;101130.09;5094236;28;20261;-63
2022/03/14 07:52:51;;;;;;;14.70;7.67;;;;;;;4.63;61.17;101126.91;5097796;28;20205;-56
2022/03/14 07:55:18;;;;;;;14.80;8.10;;;;;;;4.67;61.28;101137.84;5097256;28;20236;-56
2022/03/14 07:57:46;;;;;;;15.53;8.93;;;;;;;5.21;59.93;101136.13;5095548;28;20669;-55
2022/03/14 08:00:15;;;;;;;15.93;9.17;;;;;;;5.51;59.12;101138.97;5096611;28;20229;-55
2022/03/14 08:02:45;;;;;;;15.60;8.70;;;;;;;5.45;56.38;101139.09;5094332;28;20194;-55
2022/03/14 08:05:14;;;;;;;17.83;9.60;;;;;;;5.77;59.04;101135.94;5095131;28;20221;-55
2022/03/14 08:07:45;;;;;;;17.33;9.33;;;;;;;6.27;56.94;101128.19;5095535;28;20245;-56
2022/03/14 08:10:12;;;;;;;21.43;9.10;;;;;;;6.34;55.95;101133.09;5096613;28;20695;-63
2022/03/14 08:12:49;;;;;;;16.23;9.07;;;;;;;6.75;56.91;101133.03;5095003;28;20204;-63
2022/03/14 08:15:21;;;;;;;15.97;9.17;;;;;;;6.96;54.20;101131.69;5096038;28;20222;-55
2022/03/14 08:17:52;;;;;;;18.10;9.57;;;;;;;6.61;55.36;101132.53;5096615;28;20210;-55
2022/03/14 08:20:19;;;;;;;15.50;8.87;;;;;;;6.42;53.28;101144.78;5095365;28;20739;-63
2022/03/14 08:22:47;;;;;;;17.20;8.90;;;;;;;6.17;55.59;101139.38;5094962;28;20199;-63
2022/03/14 08:25:15;;;;;;;14.80;7.87;;;;;;;6.16;53.77;101152.97;5094356;28;20221;-55
2022/03/14 08:27:43;;;;;;;15.97;9.23;;;;;;;6.37;55.35;101146.59;5096027;28;20202;-56
2022/03/14 08:30:12;;;;;;;18.00;10.83;;;;;;;6.38;56.03;101138.94;5095739;28;20229;-55
2022/03/14 08:32:39;;;;;;;16.00;9.10;;;;;;;6.10;55.37;101146.31;5097674;28;20661;-56
2022/03/14 08:35:11;;;;;;;18.73;10.97;;;;;;;6.51;59.31;101142.88;5080747;28;20247;-63
2022/03/14 08:37:40;;;;;;;16.73;9.80;;;;;;;6.68;54.91;101141.66;5099463;28;20725;-56
2022/03/14 08:40:10;;;;;;;11.40;6.37;;;;;;;6.35;54.01;101141.56;5098714;28;20228;-62
2022/03/14 08:42:36;;;;;;;18.37;9.73;;;;;;;6.40;56.08;101139.75;5099164;28;20261;-55
2022/03/14 08:45:04;;;;;;;14.30;8.80;;;;;;;6.72;56.02;101139.03;5098897;28;20217;-63
2022/03/14 08:47:32;;;;;;;16.17;8.80;;;;;;;7.06;51.97;101143.28;5099378;28;20702;-55
2022/03/14 08:49:59;;;;;;;13.43;8.73;;;;;;;7.46;52.54;101143.09;5101708;28;20241;-63
2022/03/14 08:52:27;;;;;;;15.57;9.10;;;;;;;7.41;53.58;101144.09;5097033;28;20198;-64
2022/03/14 08:54:55;;;;;;;18.33;9.27;;;;;;;7.29;52.54;101135.06;5098155;28;20217;-63
2022/03/14 08:57:22;;;;;;;13.13;7.80;;;;;;;7.44;50.07;101134.66;5098937;28;20212;-56
2022/03/14 08:59:49;;;;;;;17.53;9.20;;;;;;;7.42;51.04;101136.44;5099529;28;20210;-64
2022/03/14 09:02:16;;;;;;;17.63;10.87;;;;;;;7.92;55.26;101126.56;5097991;28;20676;-63
2022/03/14 09:04:43;;;;;;;16.37;9.30;;;;;;;8.60;52.64;101137.34;5098856;28;20228;-56
2022/03/14 09:07:10;;;;;;;14.27;8.53;;;;;;;8.64;51.48;101144.03;5097311;28;20202;-57
2022/03/14 09:09:38;;;;;;;15.13;8.73;;;;;;;8.47;51.28;101138.59;5098176;28;20289;-56
2022/03/14 09:12:06;;;;;;;17.00;8.90;;;;;;;8.45;50.48;101141.19;5097560;28;20206;-65
2022/03/14 09:14:34;;;;;;;15.53;9.20;;;;;;;8.28;48.90;101141.66;5098188;28;20209;-64
2022/03/14 09:17:01;;;;;;;17.93;9.77;;;;;;;9.12;54.30;101134.81;5099111;28;20675;-65
2022/03/14 09:19:28;;;;;;;15.63;7.30;;;;;;;9.64;47.33;101131.31;5098203;28;20210;-64
2022/03/14 09:21:58;;;;;;;16.77;9.33;;;;;;;9.12;49.57;101148.41;5097305;28;20225;-64
2022/03/14 09:24:28;;;;;;;15.03;8.63;;;;;;;9.46;47.72;101142.19;5097717;28;20236;-65
2022/03/14 09:26:59;;;;;;;19.10;9.47;;;;;;;10.54;50.93;101129.69;5097276;28;20218;-64
2022/03/14 09:29:26;;;;;;;15.53;8.77;;;;;;;11.38;49.06;101132.25;5097513;28;20217;-57
2022/03/14 09:31:55;;;;;;;16.30;9.83;;;;;;;10.83;48.73;101125.97;5097657;28;20328;-64
2022/03/14 09:34:23;;;;;;;17.37;9.80;;;;;;;10.90;48.46;101126.53;5096668;28;20270;-57
2022/03/14 09:36:50;;;;;;;15.70;10.37;;;;;;;11.13;46.13;101127.31;5098374;28;20218;-57
2022/03/14 09:39:17;;;;;;;16.63;9.37;;;;;;;11.40;45.81;101130.44;5096967;28;20193;-63
2022/03/14 09:41:49;;;;;;;18.27;8.87;;;;;;;11.02;43.74;101132.88;5096194;28;20247;-57
2022/03/14 09:44:21;;;;;;;14.00;7.87;;;;;;;10.20;45.44;101130.13;5095983;28;20216;-64
2022/03/14 09:46:49;;;;;;;14.53;9.50;;;;;;;10.90;49.23;101129.09;5097385;28;20284;-64
2022/03/14 09:49:17;;;;;;;14.90;9.23;;;;;;;11.34;48.48;101128.97;5095866;28;20256;-56
2022/03/14 09:51:45;;;;;;;12.17;8.10;;;;;;;11.49;44.44;101125.78;5096555;28;20241;-57
2022/03/14 09:54:12;;;;;;;14.80;8.60;;;;;;;11.71;40.38;101120.50;5095724;28;20208;-56
2022/03/14 09:56:41;;;;;;;14.27;9.23;;;;;;;12.11;44.58;101128.19;5096803;28;20245;-56
2022/03/14 09:59:10;;;;;;;14.63;9.23;;;;;;;11.89;43.01;101128.31;5097444;28;20332;-64
2022/03/14 10:01:38;;;;;;;14.30;8.97;;;;;;;10.10;41.87;101128.81;5096166;28;20234;-63
2022/03/14 10:04:05;;;;;;;14.60;9.00;;;;;;;10.88;47.57;101124.06;5098027;28;20197;-56
2022/03/14 10:06:32;;;;;;;14.50;8.80;;;;;;;11.49;42.65;101127.47;5096990;28;20225;-57
2022/03/14 10:09:00;;;;;;;13.20;8.37;;;;;;;11.22;40.75;101116.69;5095922;28;20210;-64
2022/03/14 10:11:26;;;;;;;11.63;8.00;;;;;;;9.59;40.34;101133.19;5096373;28;20241;-58
2022/03/14 10:13:53;;;;;;;13.10;8.30;;;;;;;10.18;41.82;101122.53;5096913;28;20194;-64
2022/03/14 10:16:20;;;;;;;13.43;8.70;;;;;;;10.87;38.96;101127.50;5096590;28;20225;-64
2022/03/14 10:18:58;;;;;;;14.50;7.23;;;;;;;10.86;37.88;101120.72;5096944;28;20212;-56
2022/03/14 10:21:33;;;;;;;11.93;7.53;;;;;;;11.02;39.61;101123.47;5097180;28;20226;-64
2022/03/14 10:24:02;;;;;;;13.60;8.07;;;;;;;11.45;38.50;101119.09;5095738;28;20208;-56
2022/03/14 10:26:29;;;;;;;12.47;8.00;;;;;;;11.56;41.88;101123.75;5097683;28;20750;-57
2022/03/14 10:28:59;;;;;;;12.80;7.60;;;;;;;12.19;37.57;101114.09;5095615;28;20258;-64
2022/03/14 10:31:30;;;;;;;12.83;7.90;;;;;;;10.94;37.45;101119.56;5094960;28;20658;-57
2022/03/14 10:34:04;;;;;;;14.83;7.73;;;;;;;10.87;41.78;101124.09;5093909;28;20672;-56
2022/03/14 10:36:42;;;;;;;11.30;7.33;;;;;;;10.86;45.07;101117.34;5096757;28;20294;-63
2022/03/14 10:39:17;;;;;;;13.27;7.63;;;;;;;10.96;40.06;101110.09;5095649;28;20706;-56
2022/03/14 10:42:03;;;;;;;10.80;7.40;;;;;;;11.89;40.91;101103.50;5097190;28;20302;-57
2022/03/14 10:44:31;;;;;;;16.20;8.03;;;;;;;11.64;40.49;101108.88;5095031;28;20263;-66
2022/03/14 10:47:00;;;;;;;14.13;7.87;;;;;;;12.22;41.59;101100.31;5094646;28;20603;-64
2022/03/14 10:49:29;;;;;;;12.70;7.80;;;;;;;12.25;39.63;101107.88;5097288;28;20202;-57
2022/03/14 10:51:59;;;;;;;12.30;7.70;;;;;;;12.05;38.72;101097.72;5095618;28;20244;-56
2022/03/14 10:54:26;;;;;;;11.93;7.43;;;;;;;11.19;36.47;101097.16;5095247;28;20242;-65
2022/03/14 10:57:07;;;;;;;11.53;7.37;;;;;;;10.62;38.64;101096.97;5094916;28;20606;-64
2022/03/14 10:59:39;;;;;;;12.57;7.87;;;;;;;10.76;41.81;101098.13;5095097;28;20198;-64
2022/03/14 11:02:08;;;;;;;12.40;7.43;;;;;;;10.78;39.58;101093.78;5095129;28;20210;-64
2022/03/14 11:04:43;;;;;;;12.10;7.70;;;;;;;11.78;38.74;101095.47;5095382;28;20209;-56
2022/03/14 11:07:11;;;;;;;12.63;7.70;;;;;;;12.79;46.64;101085.56;5096360;28;20206;-57
2022/03/14 11:09:40;;;;;;;13.03;8.07;;;;;;;12.81;39.48;101096.59;5095397;28;20209;-57
2022/03/14 11:12:08;;;;;;;13.90;9.20;;;;;;;12.67;38.32;101086.19;5095490;28;20263;-59
2022/03/14 11:14:35;;;;;;;11.40;7.60;;;;;;;12.69;39.14;101089.50;5094368;28;20656;-56
2022/03/14 11:17:17;;;;;;;12.87;7.47;;;;;;;12.53;37.83;101083.44;5096650;28;20202;-64
2022/03/14 11:19:46;;;;;;;12.90;7.40;;;;;;;11.90;38.41;101083.88;5094737;28;20205;-56
2022/03/14 11:22:14;;;;;;;13.10;7.67;;;;;;;11.30;38.54;101091.59;5094978;28;20284;-57
2022/03/14 11:24:43;;;;;;;13.00;7.20;;;;;;;11.69;39.27;101091.59;5096642;28;20218;-59
2022/03/14 11:27:20;;;;;;;14.00;8.07;;;;;;;12.05;40.35;101088.28;5095421;28;20213;-65
2022/03/14 11:29:48;;;;;;;11.60;7.53;;;;;;;12.36;35.98;101092.81;5096809;28;20213;-58
2022/03/14 11:32:17;;;;;;;11.73;7.27;;;;;;;12.64;37.87;101091.47;5096111;28;20261;-64